LAKE NATOMA (NIMBUS DAM) (NAT)

Elevation: 132' · AMERICAN R basin · Operator: US Bureau of Reclamation

Provisional data, subject to change.
Query executed Tuesday at 18:19:30   clock

Select a sensor type for a plot of data.
Note: Reservoir Flows are daily averages.

Earlier

Date RES ELE    STORAGE    RES CHG    OUTFLOW    INFLOW    SPILL    DIS PWR   
 FEET   AF   AF   CFS   CFS   CFS   CFS  
08/17/2014 123.46 8007 -127 1546 1485 0 1496
08/18/2014 123.87 8200 193 1539 1639 0 1495
08/19/2014 123.53 8040 -160 1532 1454 0 1492
08/20/2014 123.33 7946 -94 1524 1479 0 1484
08/21/2014 123.61 8078 132 1520 1590 0 1480
08/22/2014 123.78 8158 80 1505 1548 0 1477
08/23/2014 123.94 8233 75 1499 1540 0 1479
08/24/2014 123.88 8205 -28 1495 1484 0 1475
08/25/2014 123.80 8167 -38 1496 1480 0 1476
08/26/2014 123.80 8167 0 1499 1502 0 1479
08/27/2014 123.75 8144 -23 1506 1497 0 1477
08/28/2014 123.90 8214 70 1519 1557 0 1479
08/29/2014 123.99 8256 42 1519 1543 0 1479
08/30/2014 123.83 8181 -75 1519 1484 0 1479
08/31/2014 123.83 8181 0 1522 1525 0 1482
09/01/2014 123.99 8256 75 1407 1448 0 1374
09/02/2014 123.96 8242 -14 1404 1400 0 1376
09/03/2014 123.84 8186 -56 1401 1376 0 1376
09/04/2014 123.81 8172 -14 1334 1330 456 853
09/05/2014 123.84 8186 14 1397 1406 0 1372
09/06/2014 123.77 8153 -33 1387 1372 0 1351
09/07/2014 124.01 8266 113 1396 1456 0 1354
09/08/2014 123.85 8191 -75 1394 1359 0 1352
09/09/2014 123.76 8148 -43 1406 1387 0 1364
09/10/2014 123.89 8209 61 1412 1446 0 1370
09/11/2014 123.35 7956 -253 1411 1286 0 1369
09/12/2014 122.67 7643 -313 1409 1254 0 1371
09/13/2014 122.36 7503 -140 1401 1333 0 1371
09/14/2014 123.37 7965 462 1401 1637 0 1371
09/15/2014 123.29 7927 -38 1401 1385 0 1371
09/16/2014 -- -- -- -- -- -- --

Later | Latest

Warning! This data is preliminary and subject to revision.

Download Data Now Download Data Now | Show NAT Map | Plot NAT Data | 1 Month NAT Data | Real-Time NAT Data | NAT Info